sensor_id;sensor_type;location;lat;lon;timestamp;pressure;altitude;pressure_sealevel;temperature;humidity
24825;BME280;12910;57.690;11.974;2023-01-25T00:00:45;102484.50;;;3.15;100.00
24825;BME280;12910;57.690;11.974;2023-01-25T00:03:11;102476.13;;;3.16;100.00
24825;BME280;12910;57.690;11.974;2023-01-25T00:05:36;102476.38;;;3.19;100.00
24825;BME280;12910;57.690;11.974;2023-01-25T00:08:01;102466.00;;;3.16;100.00
24825;BME280;12910;57.690;11.974;2023-01-25T00:10:27;102461.94;;;3.18;100.00
24825;BME280;12910;57.690;11.974;2023-01-25T00:12:52;102451.78;;;3.18;100.00
24825;BME280;12910;57.690;11.974;2023-01-25T00:15:17;102447.50;;;3.17;100.00
24825;BME280;12910;57.690;11.974;2023-01-25T00:17:43;102450.25;;;3.20;100.00
24825;BME280;12910;57.690;11.974;2023-01-25T00:20:09;102458.06;;;3.23;100.00
24825;BME280;12910;57.690;11.974;2023-01-25T00:22:34;102449.72;;;3.24;100.00
24825;BME280;12910;57.690;11.974;2023-01-25T00:25:00;102451.28;;;3.22;100.00
24825;BME280;12910;57.690;11.974;2023-01-25T00:27:25;102454.03;;;3.25;100.00
24825;BME280;12910;57.690;11.974;2023-01-25T00:29:50;102445.41;;;3.23;100.00
24825;BME280;12910;57.690;11.974;2023-01-25T00:34:45;102441.13;;;3.22;100.00
24825;BME280;12910;57.690;11.974;2023-01-25T00:39:42;102433.19;;;3.17;100.00
24825;BME280;12910;57.690;11.974;2023-01-25T00:42:09;102426.69;;;3.21;100.00
24825;BME280;12910;57.690;11.974;2023-01-25T00:44:36;102420.63;;;3.19;100.00
24825;BME280;12910;57.690;11.974;2023-01-25T00:47:01;102418.84;;;3.18;100.00
24825;BME280;12910;57.690;11.974;2023-01-25T00:49:27;102418.84;;;3.18;100.00
24825;BME280;12910;57.690;11.974;2023-01-25T00:51:55;102411.50;;;3.21;100.00
24825;BME280;12910;57.690;11.974;2023-01-25T00:54:20;102403.75;;;3.19;100.00
24825;BME280;12910;57.690;11.974;2023-01-25T00:56:47;102409.81;;;3.21;100.00
24825;BME280;12910;57.690;11.974;2023-01-25T00:59:13;102402.13;;;3.20;100.00
24825;BME280;12910;57.690;11.974;2023-01-25T01:01:41;102397.06;;;3.20;100.00
24825;BME280;12910;57.690;11.974;2023-01-25T01:04:07;102394.38;;;3.18;100.00
24825;BME280;12910;57.690;11.974;2023-01-25T01:06:37;102410.72;;;3.22;100.00
24825;BME280;12910;57.690;11.974;2023-01-25T01:09:04;102403.13;;;3.22;100.00
24825;BME280;12910;57.690;11.974;2023-01-25T01:11:30;102398.69;;;3.19;100.00
24825;BME280;12910;57.690;11.974;2023-01-25T01:13:57;102396.28;;;3.21;100.00
24825;BME280;12910;57.690;11.974;2023-01-25T01:16:23;102397.06;;;3.20;100.00
24825;BME280;12910;57.690;11.974;2023-01-25T01:18:49;102396.16;;;3.19;100.00
24825;BME280;12910;57.690;11.974;2023-01-25T01:21:15;102397.81;;;3.19;100.00
24825;BME280;12910;57.690;11.974;2023-01-25T01:23:41;102393.63;;;3.19;100.00
24825;BME280;12910;57.690;11.974;2023-01-25T01:26:09;102390.22;;;3.19;100.00
24825;BME280;12910;57.690;11.974;2023-01-25T01:28:36;102389.44;;;3.20;100.00
24825;BME280;12910;57.690;11.974;2023-01-25T01:31:18;102386.69;;;3.17;100.00
24825;BME280;12910;57.690;11.974;2023-01-25T01:33:44;102393.50;;;3.18;100.00
24825;BME280;12910;57.690;11.974;2023-01-25T01:36:15;102390.22;;;3.19;100.00
24825;BME280;12910;57.690;11.974;2023-01-25T01:38:41;102381.59;;;3.17;100.00
24825;BME280;12910;57.690;11.974;2023-01-25T01:41:07;102385.16;;;3.19;100.00
24825;BME280;12910;57.690;11.974;2023-01-25T01:43:33;102385.03;;;3.17;100.00
24825;BME280;12910;57.690;11.974;2023-01-25T01:46:04;102378.31;;;3.18;100.00
24825;BME280;12910;57.690;11.974;2023-01-25T01:51:43;102369.69;;;3.16;100.00
24825;BME280;12910;57.690;11.974;2023-01-25T01:57:06;102374.78;;;3.16;100.00
24825;BME280;12910;57.690;11.974;2023-01-25T01:59:38;102375.44;;;3.13;100.00
24825;BME280;12910;57.690;11.974;2023-01-25T02:02:06;102370.13;;;3.10;100.00
24825;BME280;12910;57.690;11.974;2023-01-25T02:04:31;102359.13;;;3.09;100.00
24825;BME280;12910;57.690;11.974;2023-01-25T02:07:02;102362.66;;;3.11;100.00
24825;BME280;12910;57.690;11.974;2023-01-25T02:09:31;102351.38;;;3.08;100.00
24825;BME280;12910;57.690;11.974;2023-01-25T02:12:00;102345.44;;;3.07;100.00
24825;BME280;12910;57.690;11.974;2023-01-25T02:14:27;102346.22;;;3.06;100.00
24825;BME280;12910;57.690;11.974;2023-01-25T02:16:53;102333.88;;;2.99;100.00
24825;BME280;12910;57.690;11.974;2023-01-25T02:19:39;102334.66;;;3.10;100.00
24825;BME280;12910;57.690;11.974;2023-01-25T02:22:10;102344.78;;;3.10;100.00
24825;BME280;12910;57.690;11.974;2023-01-25T02:24:40;102346.69;;;3.13;100.00
24825;BME280;12910;57.690;11.974;2023-01-25T02:27:10;102345.03;;;3.13;100.00
24825;BME280;12910;57.690;11.974;2023-01-25T02:29:36;102324.31;;;3.07;100.00
24825;BME280;12910;57.690;11.974;2023-01-25T02:32:04;102337.31;;;3.11;100.00
24825;BME280;12910;57.690;11.974;2023-01-25T02:34:29;102332.88;;;3.09;100.00
24825;BME280;12910;57.690;11.974;2023-01-25T02:36:55;102343.38;;;3.14;100.00
24825;BME280;12910;57.690;11.974;2023-01-25T02:39:21;102323.00;;;3.12;100.00
24825;BME280;12910;57.690;11.974;2023-01-25T02:41:49;102320.56;;;3.14;100.00
24825;BME280;12910;57.690;11.974;2023-01-25T02:44:27;102327.53;;;3.16;100.00
24825;BME280;12910;57.690;11.974;2023-01-25T02:46:53;102319.78;;;3.15;100.00
24825;BME280;12910;57.690;11.974;2023-01-25T02:49:19;102324.88;;;3.15;100.00
24825;BME280;12910;57.690;11.974;2023-01-25T02:51:48;102323.22;;;3.15;100.00
24825;BME280;12910;57.690;11.974;2023-01-25T02:54:15;102310.50;;;3.03;100.00
24825;BME280;12910;57.690;11.974;2023-01-25T02:56:41;102343.59;;;3.17;100.00
24825;BME280;12910;57.690;11.974;2023-01-25T02:59:10;102348.66;;;3.17;100.00
24825;BME280;12910;57.690;11.974;2023-01-25T03:01:38;102343.72;;;3.18;100.00
24825;BME280;12910;57.690;11.974;2023-01-25T03:04:04;102337.00;;;3.19;100.00
24825;BME280;12910;57.690;11.974;2023-01-25T03:06:30;102342.84;;;3.18;100.00
24825;BME280;12910;57.690;11.974;2023-01-25T03:08:55;102337.00;;;3.19;100.00
24825;BME280;12910;57.690;11.974;2023-01-25T03:11:21;102331.94;;;3.19;100.00
24825;BME280;12910;57.690;11.974;2023-01-25T03:13:46;102341.41;;;3.21;100.00
24825;BME280;12910;57.690;11.974;2023-01-25T03:16:12;102342.31;;;3.22;100.00
24825;BME280;12910;57.690;11.974;2023-01-25T03:18:39;102335.56;;;3.22;100.00
24825;BME280;12910;57.690;11.974;2023-01-25T03:23:34;102333.91;;;3.23;100.00
24825;BME280;12910;57.690;11.974;2023-01-25T03:26:20;102319.50;;;3.22;100.00
24825;BME280;12910;57.690;11.974;2023-01-25T03:28:46;102323.91;;;3.24;100.00
24825;BME280;12910;57.690;11.974;2023-01-25T03:31:14;102308.56;;;3.23;100.00
24825;BME280;12910;57.690;11.974;2023-01-25T03:33:40;102310.34;;;3.24;100.00
24825;BME280;12910;57.690;11.974;2023-01-25T03:36:06;102291.63;;;3.22;100.00
24825;BME280;12910;57.690;11.974;2023-01-25T03:38:32;102297.47;;;3.21;100.00
24825;BME280;12910;57.690;11.974;2023-01-25T03:40:58;102299.22;;;3.22;100.00
24825;BME280;12910;57.690;11.974;2023-01-25T03:43:24;102289.88;;;3.21;100.00
24825;BME280;12910;57.690;11.974;2023-01-25T03:45:54;102298.22;;;3.20;100.00
24825;BME280;12910;57.690;11.974;2023-01-25T03:48:21;102291.50;;;3.20;100.00
24825;BME280;12910;57.690;11.974;2023-01-25T03:50:51;102279.50;;;3.18;100.00
24825;BME280;12910;57.690;11.974;2023-01-25T03:53:17;102293.16;;;3.20;100.00
24825;BME280;12910;57.690;11.974;2023-01-25T03:56:06;102281.25;;;3.19;100.00
24825;BME280;12910;57.690;11.974;2023-01-25T03:58:32;102274.53;;;3.19;100.00
24825;BME280;12910;57.690;11.974;2023-01-25T04:00:59;102277.81;;;3.18;100.00
24825;BME280;12910;57.690;11.974;2023-01-25T04:03:25;102271.78;;;3.16;100.00
24825;BME280;12910;57.690;11.974;2023-01-25T04:05:52;102269.34;;;3.18;100.00
24825;BME280;12910;57.690;11.974;2023-01-25T04:08:18;102259.13;;;3.16;100.00
24825;BME280;12910;57.690;11.974;2023-01-25T04:10:44;102262.75;;;3.20;100.00
24825;BME280;12910;57.690;11.974;2023-01-25T04:13:13;102255.69;;;3.16;100.00
24825;BME280;12910;57.690;11.974;2023-01-25T04:15:39;102254.91;;;3.17;100.00
24825;BME280;12910;57.690;11.974;2023-01-25T04:18:04;102235.31;;;3.14;100.00
24825;BME280;12910;57.690;11.974;2023-01-25T04:20:29;102239.72;;;3.17;100.00
24825;BME280;12910;57.690;11.974;2023-01-25T04:22:55;102244.25;;;3.21;100.00
24825;BME280;12910;57.690;11.974;2023-01-25T04:25:20;102239.94;;;3.20;100.00
24825;BME280;12910;57.690;11.974;2023-01-25T04:27:45;102235.56;;;3.17;100.00
24825;BME280;12910;57.690;11.974;2023-01-25T04:30:11;102233.34;;;3.22;100.00
24825;BME280;12910;57.690;11.974;2023-01-25T04:32:37;102225.75;;;3.22;100.00
24825;BME280;12910;57.690;11.974;2023-01-25T04:35:02;102217.91;;;3.19;100.00
24825;BME280;12910;57.690;11.974;2023-01-25T04:37:27;102216.38;;;3.21;100.00
24825;BME280;12910;57.690;11.974;2023-01-25T04:39:53;102219.00;;;3.22;100.00
24825;BME280;12910;57.690;11.974;2023-01-25T04:42:18;102228.28;;;3.22;100.00
24825;BME280;12910;57.690;11.974;2023-01-25T04:44:43;102218.91;;;3.21;100.00
24825;BME280;12910;57.690;11.974;2023-01-25T04:47:09;102208.44;;;3.16;100.00
24825;BME280;12910;57.690;11.974;2023-01-25T04:49:34;102202.72;;;3.19;100.00
24825;BME280;12910;57.690;11.974;2023-01-25T04:51:59;102211.31;;;3.21;100.00
24825;BME280;12910;57.690;11.974;2023-01-25T04:54:25;102200.63;;;3.13;100.00
24825;BME280;12910;57.690;11.974;2023-01-25T04:56:50;102204.34;;;3.18;100.00
24825;BME280;12910;57.690;11.974;2023-01-25T04:59:15;102212.06;;;3.20;100.00
24825;BME280;12910;57.690;11.974;2023-01-25T05:01:41;102213.63;;;3.18;100.00
24825;BME280;12910;57.690;11.974;2023-01-25T05:04:06;102210.09;;;3.16;100.00
24825;BME280;12910;57.690;11.974;2023-01-25T05:06:31;102200.94;;;3.18;100.00
24825;BME280;12910;57.690;11.974;2023-01-25T05:08:57;102195.00;;;3.17;100.00
24825;BME280;12910;57.690;11.974;2023-01-25T05:11:22;102194.78;;;3.14;100.00
24825;BME280;12910;57.690;11.974;2023-01-25T05:13:48;102188.81;;;3.14;100.00
24825;BME280;12910;57.690;11.974;2023-01-25T05:16:13;102177.13;;;3.16;100.00
24825;BME280;12910;57.690;11.974;2023-01-25T05:18:38;102174.50;;;3.14;100.00
24825;BME280;12910;57.690;11.974;2023-01-25T05:21:04;102168.44;;;3.12;100.00
24825;BME280;12910;57.690;11.974;2023-01-25T05:23:29;102164.28;;;3.13;100.00
24825;BME280;12910;57.690;11.974;2023-01-25T05:25:54;102173.28;;;3.09;100.00
24825;BME280;12910;57.690;11.974;2023-01-25T05:28:38;102180.56;;;3.16;100.00
24825;BME280;12910;57.690;11.974;2023-01-25T05:31:04;102171.97;;;3.14;100.00
24825;BME280;12910;57.690;11.974;2023-01-25T05:33:30;102175.38;;;3.15;100.00
24825;BME280;12910;57.690;11.974;2023-01-25T05:35:55;102169.13;;;3.09;100.00
24825;BME280;12910;57.690;11.974;2023-01-25T05:38:23;102168.34;;;3.10;100.00
24825;BME280;12910;57.690;11.974;2023-01-25T05:40:48;102173.59;;;3.14;100.00
24825;BME280;12910;57.690;11.974;2023-01-25T05:43:13;102155.53;;;3.09;100.00
24825;BME280;12910;57.690;11.974;2023-01-25T05:45:39;102178.03;;;3.16;100.00
24825;BME280;12910;57.690;11.974;2023-01-25T05:48:04;102166.13;;;3.15;100.00
24825;BME280;12910;57.690;11.974;2023-01-25T05:50:30;102162.72;;;3.15;100.00
24825;BME280;12910;57.690;11.974;2023-01-25T05:52:55;102161.94;;;3.16;100.00
24825;BME280;12910;57.690;11.974;2023-01-25T05:55:20;102154.69;;;3.08;100.00
24825;BME280;12910;57.690;11.974;2023-01-25T05:57:46;102153.34;;;3.14;100.00
24825;BME280;12910;57.690;11.974;2023-01-25T06:00:11;102149.94;;;3.13;100.00
24825;BME280;12910;57.690;11.974;2023-01-25T06:02:37;102147.31;;;3.11;100.00
24825;BME280;12910;57.690;11.974;2023-01-25T06:05:03;102144.09;;;3.14;100.00
24825;BME280;12910;57.690;11.974;2023-01-25T06:07:32;102135.28;;;3.09;100.00
24825;BME280;12910;57.690;11.974;2023-01-25T06:10:00;102132.75;;;3.09;100.00
24825;BME280;12910;57.690;11.974;2023-01-25T06:12:25;102136.19;;;3.09;100.00
24825;BME280;12910;57.690;11.974;2023-01-25T06:14:51;102134.66;;;3.11;100.00
24825;BME280;12910;57.690;11.974;2023-01-25T06:17:16;102130.13;;;3.07;100.00
24825;BME280;12910;57.690;11.974;2023-01-25T06:19:41;102120.31;;;3.00;100.00
24825;BME280;12910;57.690;11.974;2023-01-25T06:22:07;102118.34;;;2.96;100.00
24825;BME280;12910;57.690;11.974;2023-01-25T06:24:33;102126.50;;;3.04;100.00
24825;BME280;12910;57.690;11.974;2023-01-25T06:26:59;102122.72;;;2.99;100.00
24825;BME280;12910;57.690;11.974;2023-01-25T06:29:24;102125.25;;;2.99;100.00
24825;BME280;12910;57.690;11.974;2023-01-25T06:31:49;102128.91;;;3.02;100.00
24825;BME280;12910;57.690;11.974;2023-01-25T06:34:15;102125.50;;;3.02;100.00
24825;BME280;12910;57.690;11.974;2023-01-25T06:36:41;102122.19;;;3.03;100.00
24825;BME280;12910;57.690;11.974;2023-01-25T06:39:06;102119.56;;;3.01;100.00
24825;BME280;12910;57.690;11.974;2023-01-25T06:41:32;102094.66;;;2.95;100.00
24825;BME280;12910;57.690;11.974;2023-01-25T06:43:57;102110.72;;;2.96;100.00
24825;BME280;12910;57.690;11.974;2023-01-25T06:46:22;102118.66;;;3.01;100.00
24825;BME280;12910;57.690;11.974;2023-01-25T06:48:48;102104.91;;;2.97;100.00
24825;BME280;12910;57.690;11.974;2023-01-25T06:51:14;102099.94;;;2.99;100.00
24825;BME280;12910;57.690;11.974;2023-01-25T06:53:41;102088.06;;;2.98;100.00
24825;BME280;12910;57.690;11.974;2023-01-25T06:56:15;102087.25;;;2.99;100.00
24825;BME280;12910;57.690;11.974;2023-01-25T06:58:41;102082.09;;;2.97;100.00
24825;BME280;12910;57.690;11.974;2023-01-25T07:01:18;102073.63;;;2.96;100.00
24825;BME280;12910;57.690;11.974;2023-01-25T07:03:55;102080.56;;;2.99;100.00
24825;BME280;12910;57.690;11.974;2023-01-25T07:06:22;102080.34;;;2.96;100.00
24825;BME280;12910;57.690;11.974;2023-01-25T07:08:48;102063.94;;;2.91;100.00
24825;BME280;12910;57.690;11.974;2023-01-25T07:11:14;102072.53;;;2.93;100.00
24825;BME280;12910;57.690;11.974;2023-01-25T07:13:41;102068.03;;;2.89;100.00
24825;BME280;12910;57.690;11.974;2023-01-25T07:16:11;102071.75;;;2.94;100.00
24825;BME280;12910;57.690;11.974;2023-01-25T07:18:36;102069.13;;;2.92;100.00
24825;BME280;12910;57.690;11.974;2023-01-25T07:21:13;102072.53;;;2.93;100.00
24825;BME280;12910;57.690;11.974;2023-01-25T07:23:39;102067.47;;;2.93;100.00
24825;BME280;12910;57.690;11.974;2023-01-25T07:26:13;102074.09;;;2.91;100.00
24825;BME280;12910;57.690;11.974;2023-01-25T07:28:39;102072.53;;;2.93;100.00
24825;BME280;12910;57.690;11.974;2023-01-25T07:31:05;102062.41;;;2.93;100.00
24825;BME280;12910;57.690;11.974;2023-01-25T07:33:31;102077.59;;;2.93;100.00
24825;BME280;12910;57.690;11.974;2023-01-25T07:36:05;102081.09;;;2.95;100.00
24825;BME280;12910;57.690;11.974;2023-01-25T07:38:31;102069.13;;;2.92;100.00
24825;BME280;12910;57.690;11.974;2023-01-25T07:40:56;102065.72;;;2.92;100.00
24825;BME280;12910;57.690;11.974;2023-01-25T07:43:23;102053.81;;;2.91;100.00
24825;BME280;12910;57.690;11.974;2023-01-25T07:45:49;102063.28;;;2.93;100.00
24825;BME280;12910;57.690;11.974;2023-01-25T07:48:16;102056.44;;;2.92;100.00
24825;BME280;12910;57.690;11.974;2023-01-25T07:50:42;102048.00;;;2.92;100.00
24825;BME280;12910;57.690;11.974;2023-01-25T07:53:20;102023.97;;;2.87;100.00
24825;BME280;12910;57.690;11.974;2023-01-25T07:55:45;102031.13;;;2.92;100.00
24825;BME280;12910;57.690;11.974;2023-01-25T07:58:10;102030.13;;;2.90;100.00
24825;BME280;12910;57.690;11.974;2023-01-25T08:00:36;102016.59;;;2.90;100.00
24825;BME280;12910;57.690;11.974;2023-01-25T08:03:02;102023.44;;;2.91;100.00
24825;BME280;12910;57.690;11.974;2023-01-25T08:05:27;102015.06;;;2.92;100.00
24825;BME280;12910;57.690;11.974;2023-01-25T08:07:53;102008.91;;;2.88;100.00
24825;BME280;12910;57.690;11.974;2023-01-25T08:10:18;102007.25;;;2.89;100.00
24825;BME280;12910;57.690;11.974;2023-01-25T08:12:45;102003.84;;;2.88;100.00
24825;BME280;12910;57.690;11.974;2023-01-25T08:15:11;102002.06;;;2.87;100.00
24825;BME280;12910;57.690;11.974;2023-01-25T08:17:37;102000.31;;;2.86;100.00
24825;BME280;12910;57.690;11.974;2023-01-25T08:20:04;101986.66;;;2.84;100.00
24825;BME280;12910;57.690;11.974;2023-01-25T08:22:30;101986.75;;;2.86;100.00
24825;BME280;12910;57.690;11.974;2023-01-25T08:24:57;101978.38;;;2.87;100.00
24825;BME280;12910;57.690;11.974;2023-01-25T08:27:27;101969.94;;;2.86;100.00
24825;BME280;12910;57.690;11.974;2023-01-25T08:29:53;101967.28;;;2.85;100.00
24825;BME280;12910;57.690;11.974;2023-01-25T08:32:19;101973.22;;;2.85;100.00
24825;BME280;12910;57.690;11.974;2023-01-25T08:34:44;101973.13;;;2.84;100.00
24825;BME280;12910;57.690;11.974;2023-01-25T08:37:11;101961.34;;;2.84;100.00
24825;BME280;12910;57.690;11.974;2023-01-25T08:39:36;101972.34;;;2.85;100.00
24825;BME280;12910;57.690;11.974;2023-01-25T08:42:02;101961.56;;;2.87;100.00
24825;BME280;12910;57.690;11.974;2023-01-25T08:44:27;101956.28;;;2.84;100.00
24825;BME280;12910;57.690;11.974;2023-01-25T08:46:53;101938.47;;;2.83;100.00
24825;BME280;12910;57.690;11.974;2023-01-25T08:49:18;101935.59;;;2.78;100.00
24825;BME280;12910;57.690;11.974;2023-01-25T08:51:43;101948.59;;;2.83;100.00
24825;BME280;12910;57.690;11.974;2023-01-25T08:54:11;101945.91;;;2.81;100.00
24825;BME280;12910;57.690;11.974;2023-01-25T08:56:38;101946.81;;;2.82;100.00
24825;BME280;12910;57.690;11.974;2023-01-25T08:59:03;101936.69;;;2.82;100.00
24825;BME280;12910;57.690;11.974;2023-01-25T09:01:30;101946.25;;;2.86;100.00
24825;BME280;12910;57.690;11.974;2023-01-25T09:03:56;101947.81;;;2.84;100.00
24825;BME280;12910;57.690;11.974;2023-01-25T09:06:21;101926.13;;;2.75;100.00
24825;BME280;12910;57.690;11.974;2023-01-25T09:08:47;101936.69;;;2.82;100.00
24825;BME280;12910;57.690;11.974;2023-01-25T09:11:15;101940.22;;;2.84;100.00
24825;BME280;12910;57.690;11.974;2023-01-25T09:13:41;101932.50;;;2.82;100.00
24825;BME280;12910;57.690;11.974;2023-01-25T09:16:12;101927.44;;;2.82;100.00
24825;BME280;12910;57.690;11.974;2023-01-25T09:18:39;101923.91;;;2.80;100.00
24825;BME280;12910;57.690;11.974;2023-01-25T09:21:16;101920.91;;;2.86;100.00
24825;BME280;12910;57.690;11.974;2023-01-25T09:23:42;101921.50;;;2.82;100.00
24825;BME280;12910;57.690;11.974;2023-01-25T09:26:13;101911.38;;;2.82;100.00
24825;BME280;12910;57.690;11.974;2023-01-25T09:28:40;101913.91;;;2.82;100.00
24825;BME280;12910;57.690;11.974;2023-01-25T09:31:06;101904.63;;;2.82;100.00
24825;BME280;12910;57.690;11.974;2023-01-25T09:33:37;101901.03;;;2.78;100.00
24825;BME280;12910;57.690;11.974;2023-01-25T09:36:03;101910.59;;;2.83;100.00
24825;BME280;12910;57.690;11.974;2023-01-25T09:38:29;101903.00;;;2.83;100.00
24825;BME280;12910;57.690;11.974;2023-01-25T09:54:38;101874.56;;;2.87;100.00
24825;BME280;12910;57.690;11.974;2023-01-25T09:57:14;101875.34;;;2.86;100.00
24825;BME280;12910;57.690;11.974;2023-01-25T09:59:40;101865.34;;;2.87;100.00
24825;BME280;12910;57.690;11.974;2023-01-25T10:04:52;101864.44;;;2.87;100.00
24825;BME280;12910;57.690;11.974;2023-01-25T10:10:17;101841.78;;;2.88;100.00
24825;BME280;12910;57.690;11.974;2023-01-25T10:12:44;101841.28;;;2.94;100.00
24825;BME280;12910;57.690;11.974;2023-01-25T10:15:36;101826.09;;;2.94;100.00
24825;BME280;12910;57.690;11.974;2023-01-25T10:18:29;101829.28;;;2.91;100.00
24825;BME280;12910;57.690;11.974;2023-01-25T10:21:22;101823.16;;;2.88;100.00
24825;BME280;12910;57.690;11.974;2023-01-25T10:26:36;101807.88;;;2.86;100.00
24825;BME280;12910;57.690;11.974;2023-01-25T10:29:20;101825.91;;;2.91;100.00
24825;BME280;12910;57.690;11.974;2023-01-25T10:32:12;101824.34;;;2.93;100.00
24825;BME280;12910;57.690;11.974;2023-01-25T10:34:39;101837.03;;;2.93;100.00
24825;BME280;12910;57.690;11.974;2023-01-25T10:37:22;101818.47;;;2.94;100.00
24825;BME280;12910;57.690;11.974;2023-01-25T10:39:59;101812.47;;;2.92;100.00
24825;BME280;12910;57.690;11.974;2023-01-25T10:42:29;101804.88;;;2.92;100.00
24825;BME280;12910;57.690;11.974;2023-01-25T10:44:55;101815.78;;;2.91;100.00
24825;BME280;12910;57.690;11.974;2023-01-25T10:47:41;101794.81;;;2.93;100.00
24825;BME280;12910;57.690;11.974;2023-01-25T10:50:09;101791.00;;;2.87;100.00
24825;BME280;12910;57.690;11.974;2023-01-25T10:52:35;101780.19;;;2.89;100.00
24825;BME280;12910;57.690;11.974;2023-01-25T10:55:16;101775.72;;;2.85;100.00
24825;BME280;12910;57.690;11.974;2023-01-25T11:00:27;101780.88;;;2.87;100.00
24825;BME280;12910;57.690;11.974;2023-01-25T11:02:57;101777.47;;;2.86;100.00
24825;BME280;12910;57.690;11.974;2023-01-25T11:05:32;101779.25;;;2.87;100.00
24825;BME280;12910;57.690;11.974;2023-01-25T11:10:41;101759.53;;;2.83;100.00
24825;BME280;12910;57.690;11.974;2023-01-25T11:15:40;101762.38;;;2.88;100.00
24825;BME280;12910;57.690;11.974;2023-01-25T11:18:29;101754.00;;;2.89;100.00
24825;BME280;12910;57.690;11.974;2023-01-25T11:21:11;101757.53;;;2.91;100.00
24825;BME280;12910;57.690;11.974;2023-01-25T11:23:39;101758.97;;;2.87;100.00
24825;BME280;12910;57.690;11.974;2023-01-25T11:26:18;101754.78;;;2.88;100.00
24825;BME280;12910;57.690;11.974;2023-01-25T11:28:45;101766.66;;;2.89;100.00
24825;BME280;12910;57.690;11.974;2023-01-25T11:31:15;101759.06;;;2.89;100.00
24825;BME280;12910;57.690;11.974;2023-01-25T11:33:41;101757.41;;;2.89;100.00
24825;BME280;12910;57.690;11.974;2023-01-25T11:44:05;101748.94;;;2.89;100.00
24825;BME280;12910;57.690;11.974;2023-01-25T11:46:55;101736.06;;;2.86;100.00
24825;BME280;12910;57.690;11.974;2023-01-25T11:55:21;101719.13;;;2.85;100.00
24825;BME280;12910;57.690;11.974;2023-01-25T11:57:45;101710.75;;;2.86;100.00
24825;BME280;12910;57.690;11.974;2023-01-25T12:25:31;101675.31;;;2.86;100.00
24825;BME280;12910;57.690;11.974;2023-01-25T12:28:12;101666.75;;;2.84;100.00
24825;BME280;12910;57.690;11.974;2023-01-25T12:30:53;101661.00;;;2.86;100.00
24825;BME280;12910;57.690;11.974;2023-01-25T12:36:05;101662.56;;;2.84;100.00
24825;BME280;12910;57.690;11.974;2023-01-25T12:41:38;101657.56;;;2.86;100.00
24825;BME280;12910;57.690;11.974;2023-01-25T12:44:24;101649.97;;;2.86;100.00
24825;BME280;12910;57.690;11.974;2023-01-25T12:49:47;101641.59;;;2.87;100.00
24825;BME280;12910;57.690;11.974;2023-01-25T12:52:35;101641.53;;;2.85;100.00
24825;BME280;12910;57.690;11.974;2023-01-25T12:55:11;101642.38;;;2.86;100.00
24825;BME280;12910;57.690;11.974;2023-01-25T12:57:46;101638.09;;;2.85;100.00
24825;BME280;12910;57.690;11.974;2023-01-25T13:08:18;101611.63;;;2.79;100.00
24825;BME280;12910;57.690;11.974;2023-01-25T13:10:51;101615.31;;;2.85;100.00
24825;BME280;12910;57.690;11.974;2023-01-25T13:13:26;101619.59;;;2.86;100.00
24825;BME280;12910;57.690;11.974;2023-01-25T13:15:54;101602.66;;;2.85;100.00
24825;BME280;12910;57.690;11.974;2023-01-25T13:20:59;101599.25;;;2.84;100.00
24825;BME280;12910;57.690;11.974;2023-01-25T13:23:34;101599.47;;;2.87;100.00
24825;BME280;12910;57.690;11.974;2023-01-25T13:28:57;101574.72;;;2.83;100.00
24825;BME280;12910;57.690;11.974;2023-01-25T13:34:12;101565.47;;;2.84;100.00
24825;BME280;12910;57.690;11.974;2023-01-25T13:42:01;101571.50;;;2.86;100.00
24825;BME280;12910;57.690;11.974;2023-01-25T13:44:31;101564.88;;;2.88;100.00
24825;BME280;12910;57.690;11.974;2023-01-25T13:47:02;101553.75;;;2.86;100.00
24825;BME280;12910;57.690;11.974;2023-01-25T13:49:35;101553.19;;;2.90;100.00
24825;BME280;12910;57.690;11.974;2023-01-25T13:52:03;101556.28;;;2.86;100.00
24825;BME280;12910;57.690;11.974;2023-01-25T13:54:29;101554.75;;;2.88;100.00
24825;BME280;12910;57.690;11.974;2023-01-25T13:57:06;101541.31;;;2.89;100.00
24825;BME280;12910;57.690;11.974;2023-01-25T13:59:33;101542.38;;;2.92;100.00
24825;BME280;12910;57.690;11.974;2023-01-25T14:01:59;101545.78;;;2.93;100.00
24825;BME280;12910;57.690;11.974;2023-01-25T14:04:27;101544.03;;;2.92;100.00
24825;BME280;12910;57.690;11.974;2023-01-25T14:06:59;101540.53;;;2.90;100.00
24825;BME280;12910;57.690;11.974;2023-01-25T14:09:27;101545.69;;;2.91;100.00
24825;BME280;12910;57.690;11.974;2023-01-25T14:11:56;101537.03;;;2.88;100.00
24825;BME280;12910;57.690;11.974;2023-01-25T14:14:26;101528.84;;;2.92;100.00
24825;BME280;12910;57.690;11.974;2023-01-25T14:19:30;101519.56;;;2.92;100.00
24825;BME280;12910;57.690;11.974;2023-01-25T14:24:39;101512.97;;;2.94;100.00
24825;BME280;12910;57.690;11.974;2023-01-25T14:27:11;101510.44;;;2.94;100.00
24825;BME280;12910;57.690;11.974;2023-01-25T14:29:38;101515.00;;;3.00;100.00
24825;BME280;12910;57.690;11.974;2023-01-25T14:32:03;101521.81;;;3.01;100.00
24825;BME280;12910;57.690;11.974;2023-01-25T14:34:29;101512.97;;;2.94;100.00
24825;BME280;12910;57.690;11.974;2023-01-25T14:37:24;101514.22;;;3.01;100.00
24825;BME280;12910;57.690;11.974;2023-01-25T14:39:50;101503.97;;;3.00;100.00
24825;BME280;12910;57.690;11.974;2023-01-25T14:42:16;101504.09;;;3.01;100.00
24825;BME280;12910;57.690;11.974;2023-01-25T14:44:43;101505.03;;;3.03;100.00